Tequesta, FL (33469)

12:55 PM EDT on October 21, 2014 (GMT -0400)
KFLTEQUE4 | Change Station
CLOSE
Current Station
Personal Weather Station
Location: Tequesta, FL
Elevation: 20 ft
Nearby Weather Stations

Elev 20 ft 26.96 °N, 80.08 °W | Updated 14 seconds ago

Overcast
Overcast
79.3 °F
Feels Like 84 °F
N
2.9
Wind Variable Wind from West
Gusts 2.9 mph

Today
High -- | Low -- °F
--% Chance of Precip.
Yesterday
High -- | Low -- °F
Precip. -- in
7:23 AM 6:46 PM
Waning Crescent, 5% visible
Pressure 29.96 in
Visibility 7.0 miles
Clouds Scattered Clouds 2000 ft
Mostly Cloudy 4500 ft
Heat Index 84 °F
Dew Point 76 °F
Humidity 90%
Rainfall 0.36 in
Snow Depth Not available.
UV 5 out of 12
Pollen 3.20 out of 12
Ozone Good
PM2.5 Good
Flu Activity Local Activity
METAR KSUA 211647Z 09006KT 7SM VCTS SCT020 BKN045 24/21 A2996

More Conditions Fewer Conditions

Pressure 29.96 in
Visibility 7.0 miles
Clouds Scattered Clouds 2000 ft
Mostly Cloudy 4500 ft
Heat Index 84 °F
Dew Point 76 °F
Humidity 90%
Rainfall 0.36 in
Snow Depth Not available.
UV 5 out of 12
Pollen 3.20 out of 12
Ozone Good
PM2.5 Good
Flu Activity Local Activity
METAR KSUA 211647Z 09006KT 7SM VCTS SCT020 BKN045 24/21 A2996

More Conditions Fewer Conditions

Nowcast | as of 11:51 am EDT on October 21, 2014

Through early this afternoon...showers and thunderstorms will continue to develop over the interior areas and move north northeast into the East Coast Metro areas of South Florida. Wind gusts up to 40 mph...lightning strikes...and heavy rainfall will accompany any storms that move through the area. If you see lightning or hear thunder move inside until the storms have passed by.

×

10-Day Weather Forecast

Almanac

Astronomy

Oct. 21, 2014 Rise Set
Actual Time 7:23 AM EDT 6:46 PM EDT
Civil Twilight 6:59 AM EDT 7:09 PM EDT
Nautical Twilight 6:32 AM EDT 7:36 PM EDT
Astronomical Twilight 6:05 AM EDT 8:03 PM EDT
Moon 5:18 AM EDT 5:29 PM EDT
Length of Visible Light 12h 09m
Length of Day
11h 22m
Tomorrow will be 1m 29s shorter.
Waning Crescent, 5% of the Moon is Illuminated
Today
Waning Crescent
Oct 23
New
Oct 30
First Quarter
Nov 6
Full
Nov 14
Last Quarter

Today's Extremes

State Highs State Lows

Community

WunderPhotos

Upload Photos

1,763,712 photos uploaded!

Nearby

Air Quality

  Air Quality AQ Index Pollutant
Yesterday Good
PM2.5
Yesterday Good
OZONE
Current Good
PM2.5
Current Good
OZONE
Tuesday Good
OZONE
Tuesday Good
PM2.5
Wednesday Good
OZONE
Wednesday Good
PM2.5

Snow Depth

Station Depth Elevation
No new snow has been reported.

Earthquake Activity

City Distance Mag. Time & Date
No recent earthquake activity has been reported nearby.
Minimum magnitude displayed is 2.5.

Coastal Water Temperatures

Place Temperature
Lake Worth, FL 82.9 °F
Trident Pier, FL 80.1 °F
Virginia Key, FL 81.0 °F

Nearby Weather Stations